Terminal Aerodrome Forecast
Issued by NWS Upton, NY

Home | Current Version | Previous Version | Text Only | Print | Product List | Glossary On
Versions: 1 2 3 4 5 6 7 8 9 10 11 12 13 14 15 16 17 18 19 20 21 22 23 24 25 26 27 28 29 30 31 32 33 34 35 36 37 38 39 40 41 42 43 44 45 46 47 48 49 50
000
FTUS41 KOKX 192340
TAFEWR
TAF
KEWR 192340Z 2000/2106 18015G24KT P6SM VCSH BKN025 WS015/19050KT
      TEMPO 2000/2003 3SM SHRA BR SCT008 OVC015
     FM200900 17014G20KT 3SM SHRA BR SCT008 OVC015 WS015/19045KT
      PROB30 2009/2013 1SM +TSRA BKN015 OVC030CB
     FM201400 17014G22KT 4SM SHRA BR OVC012 WS020/19045KT
     FM201600 17015G22KT P6SM VCSH BKN015 BKN025
     FM201900 15016G25KT P6SM SCT030 BKN150
     FM210100 16010G17KT P6SM BKN200=

USA.gov is the U.S. government's official web portal to all federal, state and local government web resources and services.